»·PEaware :: N54JA KBFL-KMHV

N54JA :: KBFL-KMHV

FLIGHT INFORMATION

Flight Status: Arrived
Operator: Privately registered:
United States
More flights under this callsign
Pilot: Kevin S. (26378)
Aircraft: CESSNA 172 SKYHAWK
(C172)
More flights by this aircraft type
Origin: KBFL Meadows
United States
Destination: KMHV Mojave
United States
More flights between these airports :: More routes between these airports
Route: +
File this flight plan on PilotEdge
Remarks:
Altitude:
(Current/Filed)
7,500ft
Speed:
(Current/Filed)
100kts
Departed: 03-Oct-19 07:28 PM
Arrived: 03-Oct-19 08:09 PM
Distance/Time
Traveled:
50nm/0:40
Distance/Time
To Go:
Arrived

Flight Plot

Page will automatically refresh every two minutes.


Map Options




Map Legend


Flown Route
Filed Route
Departure Airport
Arrival Airport
Navaid (VOR, NDB)
Fix

Horizontal Profiles

Position Reports

Time Latitude Longitude Heading Altitude Ground
Speed
03-Oct-19 19:10 35.426192 -119.042681 179 484ft 0kts
03-Oct-19 19:11 35.426192 -119.042681 179 484ft 0kts
03-Oct-19 19:12 35.426192 -119.042681 179 484ft 0kts
03-Oct-19 19:13 35.426192 -119.042681 179 484ft 0kts
03-Oct-19 19:14 35.426192 -119.042681 179 484ft 0kts
03-Oct-19 19:15 35.426192 -119.042681 179 484ft 0kts
03-Oct-19 19:16 35.426192 -119.042681 179 484ft 0kts
03-Oct-19 19:17 35.426192 -119.042681 179 484ft 0kts
03-Oct-19 19:18 35.426192 -119.042681 179 484ft 0kts
03-Oct-19 19:19 35.426192 -119.042681 179 484ft 0kts
03-Oct-19 19:20 35.425911 -119.042725 186 483ft 6kts
03-Oct-19 19:21 35.426177 -119.043509 332 484ft 13kts
03-Oct-19 19:22 35.425779 -119.044751 230 480ft 0kts
03-Oct-19 19:23 35.425779 -119.044751 230 480ft 0kts
03-Oct-19 19:24 35.425772 -119.044763 230 480ft 0kts
03-Oct-19 19:25 35.425772 -119.044763 230 480ft 0kts
03-Oct-19 19:26 35.426280 -119.047035 315 477ft 0kts
03-Oct-19 19:27 35.436487 -119.060665 308 1071ft 80kts
03-Oct-19 19:28 35.449760 -119.079921 337 2185ft 75kts
03-Oct-19 19:29 35.460477 -119.067753 138 3059ft 99kts
03-Oct-19 19:30 35.441924 -119.047609 135 4112ft 87kts
03-Oct-19 19:31 35.430203 -119.021156 93 4944ft 93kts
03-Oct-19 19:32 35.421554 -118.991242 115 5779ft 95kts
03-Oct-19 19:33 35.409025 -118.962237 112 6536ft 98kts
03-Oct-19 19:34 35.399626 -118.930706 114 7258ft 99kts
03-Oct-19 19:35 35.376315 -118.917300 172 7908ft 96kts
03-Oct-19 19:36 35.352675 -118.899155 153 7790ft 107kts
03-Oct-19 19:37 35.323965 -118.886164 166 7495ft 109kts
03-Oct-19 19:38 35.294347 -118.877273 180 7375ft 109kts
03-Oct-19 19:39 35.264642 -118.877717 167 7362ft 112kts
03-Oct-19 19:40 35.235210 -118.866780 158 7414ft 113kts
03-Oct-19 19:41 35.207315 -118.849685 161 7449ft 112kts
03-Oct-19 19:42 35.183340 -118.824421 144 7490ft 114kts
03-Oct-19 19:43 35.164449 -118.792856 124 7972ft 115kts
03-Oct-19 19:44 35.143294 -118.768747 153 8646ft 102kts
03-Oct-19 19:45 35.124265 -118.745772 126 9250ft 102kts
03-Oct-19 19:46 35.107613 -118.716454 140 9688ft 109kts
03-Oct-19 19:47 35.087196 -118.689491 148 9654ft 108kts
03-Oct-19 19:48 35.070703 -118.658308 124 9733ft 114kts
03-Oct-19 19:49 35.065501 -118.619189 108 9810ft 114kts
03-Oct-19 19:50 35.058151 -118.581216 96 9897ft 118kts
03-Oct-19 19:51 35.050635 -118.542031 105 9606ft 120kts
03-Oct-19 19:52 35.042092 -118.504466 120 9610ft 112kts
03-Oct-19 19:53 35.034777 -118.467361 117 8962ft 108kts
03-Oct-19 19:54 35.020092 -118.438483 154 8200ft 94kts
03-Oct-19 19:55 34.999510 -118.418284 155 7349ft 94kts
03-Oct-19 19:56 34.978816 -118.398605 127 6524ft 97kts
03-Oct-19 19:57 34.968116 -118.374538 91 5852ft 94kts
03-Oct-19 19:58 34.972085 -118.343543 75 5644ft 100kts
03-Oct-19 19:59 34.974961 -118.308540 86 5458ft 104kts
03-Oct-19 20:00 34.979202 -118.274125 57 5259ft 103kts
03-Oct-19 20:01 34.988329 -118.241518 65 5003ft 103kts
03-Oct-19 20:02 35.005143 -118.214393 37 4707ft 100kts
03-Oct-19 20:03 35.020803 -118.186563 24 4109ft 94kts
03-Oct-19 20:04 35.039637 -118.169131 73 3657ft 98kts
03-Oct-19 20:05 35.035863 -118.134947 101 3682ft 104kts
03-Oct-19 20:06 35.042341 -118.114780 303 3539ft 67kts
03-Oct-19 20:07 35.057347 -118.124350 285 3222ft 48kts
03-Oct-19 20:08 35.059231 -118.139460 264 2814ft 37kts
03-Oct-19 20:09 35.059109 -118.147988 243 2746ft 7kts
03-Oct-19 20:10 35.058376 -118.148823 222 2744ft 0kts
03-Oct-19 20:11 35.057591 -118.150131 257 2746ft 20kts

Navigation Log

Ident Type
Flight plan parsing failed, navigation log unavailable